sensor_id;sensor_type;location;lat;lon;timestamp;P1;durP1;ratioP1;P2;durP2;ratioP2
34144;SDS011;69555;53.014;8.886;2023-07-29T00:02:12;24.38;;;16.85;;
34144;SDS011;69555;53.014;8.886;2023-07-29T00:04:38;22.88;;;15.65;;
34144;SDS011;69555;53.014;8.886;2023-07-29T00:07:03;24.48;;;16.58;;
34144;SDS011;69555;53.014;8.886;2023-07-29T00:09:30;25.20;;;15.57;;
34144;SDS011;69555;53.014;8.886;2023-07-29T00:11:57;25.52;;;16.55;;
34144;SDS011;69555;53.014;8.886;2023-07-29T00:14:23;27.63;;;17.38;;
34144;SDS011;69555;53.014;8.886;2023-07-29T00:16:50;23.90;;;15.65;;
34144;SDS011;69555;53.014;8.886;2023-07-29T00:19:17;25.20;;;16.52;;
34144;SDS011;69555;53.014;8.886;2023-07-29T00:21:43;23.92;;;16.60;;
34144;SDS011;69555;53.014;8.886;2023-07-29T00:24:10;26.92;;;15.45;;
34144;SDS011;69555;53.014;8.886;2023-07-29T00:26:36;30.58;;;15.35;;
34144;SDS011;69555;53.014;8.886;2023-07-29T00:29:03;23.25;;;16.52;;
34144;SDS011;69555;53.014;8.886;2023-07-29T00:31:30;30.45;;;15.93;;
34144;SDS011;69555;53.014;8.886;2023-07-29T00:33:57;23.45;;;15.43;;
34144;SDS011;69555;53.014;8.886;2023-07-29T00:36:24;18.95;;;15.02;;
34144;SDS011;69555;53.014;8.886;2023-07-29T00:38:51;31.67;;;17.42;;
34144;SDS011;69555;53.014;8.886;2023-07-29T00:41:20;19.35;;;14.63;;
34144;SDS011;69555;53.014;8.886;2023-07-29T00:43:48;23.73;;;15.60;;
34144;SDS011;69555;53.014;8.886;2023-07-29T00:46:15;30.67;;;17.02;;
34144;SDS011;69555;53.014;8.886;2023-07-29T00:48:41;25.42;;;15.07;;
34144;SDS011;69555;53.014;8.886;2023-07-29T00:51:08;19.52;;;16.25;;
34144;SDS011;69555;53.014;8.886;2023-07-29T00:53:33;23.77;;;15.70;;
34144;SDS011;69555;53.014;8.886;2023-07-29T00:56:00;24.77;;;17.20;;
34144;SDS011;69555;53.014;8.886;2023-07-29T00:58:26;21.90;;;15.40;;
34144;SDS011;69555;53.014;8.886;2023-07-29T01:00:53;25.58;;;15.38;;
34144;SDS011;69555;53.014;8.886;2023-07-29T01:03:20;24.95;;;15.90;;
34144;SDS011;69555;53.014;8.886;2023-07-29T01:18:02;21.08;;;15.02;;
34144;SDS011;69555;53.014;8.886;2023-07-29T01:20:42;22.20;;;14.15;;
34144;SDS011;69555;53.014;8.886;2023-07-29T01:23:09;20.83;;;14.50;;
34144;SDS011;69555;53.014;8.886;2023-07-29T01:25:37;28.08;;;16.27;;
34144;SDS011;69555;53.014;8.886;2023-07-29T01:28:02;30.90;;;17.52;;
34144;SDS011;69555;53.014;8.886;2023-07-29T01:30:36;26.23;;;17.58;;
34144;SDS011;69555;53.014;8.886;2023-07-29T01:33:09;32.55;;;19.40;;
34144;SDS011;69555;53.014;8.886;2023-07-29T01:38:32;33.95;;;20.38;;
34144;SDS011;69555;53.014;8.886;2023-07-29T01:41:00;33.92;;;20.17;;
34144;SDS011;69555;53.014;8.886;2023-07-29T01:43:28;33.50;;;20.42;;
34144;SDS011;69555;53.014;8.886;2023-07-29T01:45:56;35.70;;;21.05;;
34144;SDS011;69555;53.014;8.886;2023-07-29T01:48:22;35.10;;;21.80;;
34144;SDS011;69555;53.014;8.886;2023-07-29T01:50:49;42.13;;;22.15;;
34144;SDS011;69555;53.014;8.886;2023-07-29T01:53:16;40.70;;;21.33;;
34144;SDS011;69555;53.014;8.886;2023-07-29T01:55:43;35.88;;;21.98;;
34144;SDS011;69555;53.014;8.886;2023-07-29T01:58:10;34.97;;;21.45;;
34144;SDS011;69555;53.014;8.886;2023-07-29T02:00:36;32.50;;;21.60;;
34144;SDS011;69555;53.014;8.886;2023-07-29T02:03:03;40.58;;;22.23;;
34144;SDS011;69555;53.014;8.886;2023-07-29T02:05:29;31.45;;;20.75;;
34144;SDS011;69555;53.014;8.886;2023-07-29T02:07:56;36.88;;;22.77;;
34144;SDS011;69555;53.014;8.886;2023-07-29T02:10:23;38.10;;;22.65;;
34144;SDS011;69555;53.014;8.886;2023-07-29T02:12:49;36.03;;;22.88;;
34144;SDS011;69555;53.014;8.886;2023-07-29T02:15:16;43.17;;;21.88;;
34144;SDS011;69555;53.014;8.886;2023-07-29T02:17:43;42.92;;;24.25;;
34144;SDS011;69555;53.014;8.886;2023-07-29T02:20:10;41.08;;;24.33;;
34144;SDS011;69555;53.014;8.886;2023-07-29T02:22:37;39.03;;;23.50;;
34144;SDS011;69555;53.014;8.886;2023-07-29T02:25:03;41.88;;;24.58;;
34144;SDS011;69555;53.014;8.886;2023-07-29T02:27:31;41.60;;;24.98;;
34144;SDS011;69555;53.014;8.886;2023-07-29T02:29:59;44.63;;;25.50;;
34144;SDS011;69555;53.014;8.886;2023-07-29T02:32:26;45.47;;;27.02;;
34144;SDS011;69555;53.014;8.886;2023-07-29T02:34:53;57.08;;;25.77;;
34144;SDS011;69555;53.014;8.886;2023-07-29T02:37:19;48.90;;;25.33;;
34144;SDS011;69555;53.014;8.886;2023-07-29T02:39:46;49.58;;;25.70;;
34144;SDS011;69555;53.014;8.886;2023-07-29T02:42:13;43.22;;;26.15;;
34144;SDS011;69555;53.014;8.886;2023-07-29T02:44:39;40.03;;;24.75;;
34144;SDS011;69555;53.014;8.886;2023-07-29T02:47:06;40.38;;;24.95;;
34144;SDS011;69555;53.014;8.886;2023-07-29T02:49:33;38.47;;;24.73;;
34144;SDS011;69555;53.014;8.886;2023-07-29T02:51:58;41.88;;;24.98;;
34144;SDS011;69555;53.014;8.886;2023-07-29T02:54:23;40.55;;;24.80;;
34144;SDS011;69555;53.014;8.886;2023-07-29T02:56:49;39.10;;;23.08;;
34144;SDS011;69555;53.014;8.886;2023-07-29T02:59:16;40.55;;;23.85;;
34144;SDS011;69555;53.014;8.886;2023-07-29T03:01:43;44.22;;;25.10;;
34144;SDS011;69555;53.014;8.886;2023-07-29T03:04:08;39.65;;;23.30;;
34144;SDS011;69555;53.014;8.886;2023-07-29T03:06:34;45.83;;;24.60;;
34144;SDS011;69555;53.014;8.886;2023-07-29T03:08:59;40.10;;;23.52;;
34144;SDS011;69555;53.014;8.886;2023-07-29T03:11:24;48.53;;;25.02;;
34144;SDS011;69555;53.014;8.886;2023-07-29T03:13:50;48.13;;;25.13;;
34144;SDS011;69555;53.014;8.886;2023-07-29T03:16:16;40.35;;;24.13;;
34144;SDS011;69555;53.014;8.886;2023-07-29T03:18:42;40.83;;;24.10;;
34144;SDS011;69555;53.014;8.886;2023-07-29T03:21:08;39.65;;;23.45;;
34144;SDS011;69555;53.014;8.886;2023-07-29T03:23:35;39.70;;;24.73;;
34144;SDS011;69555;53.014;8.886;2023-07-29T03:26:01;41.50;;;25.00;;
34144;SDS011;69555;53.014;8.886;2023-07-29T03:28:34;32.85;;;20.80;;
34144;SDS011;69555;53.014;8.886;2023-07-29T03:31:00;45.83;;;23.42;;
34144;SDS011;69555;53.014;8.886;2023-07-29T03:33:26;39.45;;;23.50;;
34144;SDS011;69555;53.014;8.886;2023-07-29T03:35:52;37.78;;;22.65;;
34144;SDS011;69555;53.014;8.886;2023-07-29T03:38:17;37.03;;;21.20;;
34144;SDS011;69555;53.014;8.886;2023-07-29T03:40:43;44.35;;;22.88;;
34144;SDS011;69555;53.014;8.886;2023-07-29T03:43:08;34.15;;;21.05;;
34144;SDS011;69555;53.014;8.886;2023-07-29T03:45:34;30.85;;;20.48;;
34144;SDS011;69555;53.014;8.886;2023-07-29T03:48:00;37.63;;;21.88;;
34144;SDS011;69555;53.014;8.886;2023-07-29T03:50:26;34.15;;;20.65;;
34144;SDS011;69555;53.014;8.886;2023-07-29T03:52:52;32.38;;;21.23;;
34144;SDS011;69555;53.014;8.886;2023-07-29T03:55:17;30.85;;;19.23;;
34144;SDS011;69555;53.014;8.886;2023-07-29T03:57:43;28.88;;;20.33;;
34144;SDS011;69555;53.014;8.886;2023-07-29T04:00:08;34.97;;;20.83;;
34144;SDS011;69555;53.014;8.886;2023-07-29T04:02:34;30.25;;;19.42;;
34144;SDS011;69555;53.014;8.886;2023-07-29T04:05:02;30.42;;;19.52;;
34144;SDS011;69555;53.014;8.886;2023-07-29T04:07:29;32.80;;;20.13;;
34144;SDS011;69555;53.014;8.886;2023-07-29T04:09:55;34.20;;;20.85;;
34144;SDS011;69555;53.014;8.886;2023-07-29T04:12:20;32.55;;;19.48;;
34144;SDS011;69555;53.014;8.886;2023-07-29T04:14:46;36.80;;;20.25;;
34144;SDS011;69555;53.014;8.886;2023-07-29T04:17:12;31.95;;;19.23;;
34144;SDS011;69555;53.014;8.886;2023-07-29T04:19:37;26.80;;;17.83;;
34144;SDS011;69555;53.014;8.886;2023-07-29T04:22:03;27.00;;;18.08;;
34144;SDS011;69555;53.014;8.886;2023-07-29T04:24:28;29.85;;;17.23;;
34144;SDS011;69555;53.014;8.886;2023-07-29T04:26:54;30.38;;;17.48;;
34144;SDS011;69555;53.014;8.886;2023-07-29T04:29:19;27.63;;;17.10;;
34144;SDS011;69555;53.014;8.886;2023-07-29T04:31:44;24.00;;;16.05;;
34144;SDS011;69555;53.014;8.886;2023-07-29T04:34:10;23.33;;;16.48;;
34144;SDS011;69555;53.014;8.886;2023-07-29T04:36:36;30.55;;;17.88;;
34144;SDS011;69555;53.014;8.886;2023-07-29T04:39:01;30.45;;;17.65;;
34144;SDS011;69555;53.014;8.886;2023-07-29T04:41:27;30.85;;;17.33;;
34144;SDS011;69555;53.014;8.886;2023-07-29T04:43:52;25.90;;;17.73;;
34144;SDS011;69555;53.014;8.886;2023-07-29T04:46:17;26.02;;;16.90;;
34144;SDS011;69555;53.014;8.886;2023-07-29T04:48:43;23.10;;;16.10;;
34144;SDS011;69555;53.014;8.886;2023-07-29T04:51:08;23.33;;;15.25;;
34144;SDS011;69555;53.014;8.886;2023-07-29T04:53:34;23.00;;;16.67;;
34144;SDS011;69555;53.014;8.886;2023-07-29T04:56:01;28.05;;;17.85;;
34144;SDS011;69555;53.014;8.886;2023-07-29T04:58:27;25.92;;;15.38;;
34144;SDS011;69555;53.014;8.886;2023-07-29T05:00:54;22.25;;;15.95;;
34144;SDS011;69555;53.014;8.886;2023-07-29T05:03:20;17.05;;;13.73;;
34144;SDS011;69555;53.014;8.886;2023-07-29T05:05:45;22.70;;;14.60;;
34144;SDS011;69555;53.014;8.886;2023-07-29T05:08:11;19.60;;;14.88;;
34144;SDS011;69555;53.014;8.886;2023-07-29T05:10:36;20.55;;;14.35;;
34144;SDS011;69555;53.014;8.886;2023-07-29T05:13:02;21.55;;;14.45;;
34144;SDS011;69555;53.014;8.886;2023-07-29T05:15:27;23.83;;;14.50;;
34144;SDS011;69555;53.014;8.886;2023-07-29T05:17:53;19.45;;;13.57;;
34144;SDS011;69555;53.014;8.886;2023-07-29T05:20:18;24.42;;;13.27;;
34144;SDS011;69555;53.014;8.886;2023-07-29T05:22:43;20.45;;;13.48;;
34144;SDS011;69555;53.014;8.886;2023-07-29T05:25:09;22.27;;;13.02;;
34144;SDS011;69555;53.014;8.886;2023-07-29T05:27:34;21.85;;;13.75;;
34144;SDS011;69555;53.014;8.886;2023-07-29T05:30:00;19.20;;;12.85;;
34144;SDS011;69555;53.014;8.886;2023-07-29T05:32:25;19.58;;;13.02;;
34144;SDS011;69555;53.014;8.886;2023-07-29T05:34:51;19.52;;;13.20;;
34144;SDS011;69555;53.014;8.886;2023-07-29T05:37:16;23.85;;;14.93;;
34144;SDS011;69555;53.014;8.886;2023-07-29T05:39:41;24.15;;;13.80;;
34144;SDS011;69555;53.014;8.886;2023-07-29T05:42:07;19.08;;;13.45;;
34144;SDS011;69555;53.014;8.886;2023-07-29T05:44:33;24.20;;;13.02;;
34144;SDS011;69555;53.014;8.886;2023-07-29T05:46:58;21.00;;;12.93;;
34144;SDS011;69555;53.014;8.886;2023-07-29T05:49:24;14.95;;;13.02;;
34144;SDS011;69555;53.014;8.886;2023-07-29T05:51:49;21.35;;;14.25;;
34144;SDS011;69555;53.014;8.886;2023-07-29T05:54:17;22.30;;;15.25;;
34144;SDS011;69555;53.014;8.886;2023-07-29T05:56:43;27.15;;;15.73;;
34144;SDS011;69555;53.014;8.886;2023-07-29T05:59:08;22.10;;;14.70;;
34144;SDS011;69555;53.014;8.886;2023-07-29T06:01:34;24.30;;;16.08;;
34144;SDS011;69555;53.014;8.886;2023-07-29T06:04:00;20.40;;;15.88;;
34144;SDS011;69555;53.014;8.886;2023-07-29T06:06:25;23.67;;;16.75;;
34144;SDS011;69555;53.014;8.886;2023-07-29T06:08:51;20.90;;;16.02;;
34144;SDS011;69555;53.014;8.886;2023-07-29T06:11:16;24.52;;;16.40;;
34144;SDS011;69555;53.014;8.886;2023-07-29T06:13:42;24.15;;;17.05;;
34144;SDS011;69555;53.014;8.886;2023-07-29T06:16:07;24.38;;;18.40;;
34144;SDS011;69555;53.014;8.886;2023-07-29T06:18:33;25.10;;;17.63;;
34144;SDS011;69555;53.014;8.886;2023-07-29T06:20:58;29.73;;;18.60;;
34144;SDS011;69555;53.014;8.886;2023-07-29T06:23:24;27.52;;;19.88;;
34144;SDS011;69555;53.014;8.886;2023-07-29T06:25:49;27.20;;;19.40;;
34144;SDS011;69555;53.014;8.886;2023-07-29T06:28:14;30.13;;;21.25;;
34144;SDS011;69555;53.014;8.886;2023-07-29T06:30:40;25.40;;;18.88;;
34144;SDS011;69555;53.014;8.886;2023-07-29T06:33:05;28.85;;;21.58;;
34144;SDS011;69555;53.014;8.886;2023-07-29T06:35:31;25.95;;;19.38;;
34144;SDS011;69555;53.014;8.886;2023-07-29T06:37:56;24.23;;;19.30;;
34144;SDS011;69555;53.014;8.886;2023-07-29T06:40:23;30.27;;;20.63;;
34144;SDS011;69555;53.014;8.886;2023-07-29T06:42:53;28.98;;;21.17;;
34144;SDS011;69555;53.014;8.886;2023-07-29T06:45:18;26.00;;;19.58;;
34144;SDS011;69555;53.014;8.886;2023-07-29T06:47:45;27.23;;;20.02;;
34144;SDS011;69555;53.014;8.886;2023-07-29T06:50:11;33.67;;;21.85;;
34144;SDS011;69555;53.014;8.886;2023-07-29T06:52:37;29.63;;;20.77;;
34144;SDS011;69555;53.014;8.886;2023-07-29T06:55:03;25.52;;;17.05;;
34144;SDS011;69555;53.014;8.886;2023-07-29T06:57:29;22.23;;;17.77;;
34144;SDS011;69555;53.014;8.886;2023-07-29T06:59:54;21.23;;;18.50;;
34144;SDS011;69555;53.014;8.886;2023-07-29T07:02:19;23.27;;;17.95;;
34144;SDS011;69555;53.014;8.886;2023-07-29T07:04:45;25.13;;;17.42;;
34144;SDS011;69555;53.014;8.886;2023-07-29T07:07:10;22.90;;;18.02;;
34144;SDS011;69555;53.014;8.886;2023-07-29T07:09:36;23.00;;;18.52;;
34144;SDS011;69555;53.014;8.886;2023-07-29T07:12:01;23.58;;;17.45;;
34144;SDS011;69555;53.014;8.886;2023-07-29T07:14:27;25.10;;;17.85;;
34144;SDS011;69555;53.014;8.886;2023-07-29T07:16:52;22.67;;;18.00;;
34144;SDS011;69555;53.014;8.886;2023-07-29T07:19:17;19.02;;;16.58;;
34144;SDS011;69555;53.014;8.886;2023-07-29T07:21:43;24.48;;;17.25;;
34144;SDS011;69555;53.014;8.886;2023-07-29T07:24:08;18.10;;;16.15;;
34144;SDS011;69555;53.014;8.886;2023-07-29T07:26:34;20.45;;;16.27;;
34144;SDS011;69555;53.014;8.886;2023-07-29T07:28:59;20.45;;;13.88;;
34144;SDS011;69555;53.014;8.886;2023-07-29T07:31:24;17.20;;;14.30;;
34144;SDS011;69555;53.014;8.886;2023-07-29T07:33:50;20.83;;;14.88;;
34144;SDS011;69555;53.014;8.886;2023-07-29T07:36:15;20.60;;;15.60;;
34144;SDS011;69555;53.014;8.886;2023-07-29T07:38:41;18.83;;;16.23;;
34144;SDS011;69555;53.014;8.886;2023-07-29T07:41:06;21.45;;;16.33;;
34144;SDS011;69555;53.014;8.886;2023-07-29T07:43:31;18.13;;;14.25;;
34144;SDS011;69555;53.014;8.886;2023-07-29T07:45:57;20.08;;;14.90;;
34144;SDS011;69555;53.014;8.886;2023-07-29T07:48:24;16.55;;;13.10;;
34144;SDS011;69555;53.014;8.886;2023-07-29T07:50:50;15.07;;;11.55;;
34144;SDS011;69555;53.014;8.886;2023-07-29T07:53:15;19.65;;;14.52;;
34144;SDS011;69555;53.014;8.886;2023-07-29T07:55:40;17.65;;;13.45;;
34144;SDS011;69555;53.014;8.886;2023-07-29T07:58:06;17.08;;;12.45;;
34144;SDS011;69555;53.014;8.886;2023-07-29T08:00:31;19.25;;;12.48;;
34144;SDS011;69555;53.014;8.886;2023-07-29T08:02:56;16.50;;;12.55;;
34144;SDS011;69555;53.014;8.886;2023-07-29T08:05:22;15.82;;;11.77;;
34144;SDS011;69555;53.014;8.886;2023-07-29T08:07:47;15.25;;;10.43;;
34144;SDS011;69555;53.014;8.886;2023-07-29T08:10:13;12.55;;;10.00;;
34144;SDS011;69555;53.014;8.886;2023-07-29T08:12:38;14.23;;;11.55;;
34144;SDS011;69555;53.014;8.886;2023-07-29T08:15:03;11.88;;;9.52;;
34144;SDS011;69555;53.014;8.886;2023-07-29T08:17:30;14.65;;;9.70;;
34144;SDS011;69555;53.014;8.886;2023-07-29T08:19:55;10.82;;;9.02;;
34144;SDS011;69555;53.014;8.886;2023-07-29T08:22:20;13.95;;;9.63;;
34144;SDS011;69555;53.014;8.886;2023-07-29T08:24:46;10.95;;;8.40;;
34144;SDS011;69555;53.014;8.886;2023-07-29T08:27:11;10.82;;;7.97;;
34144;SDS011;69555;53.014;8.886;2023-07-29T08:29:36;11.18;;;6.90;;
34144;SDS011;69555;53.014;8.886;2023-07-29T08:32:02;9.55;;;6.80;;
34144;SDS011;69555;53.014;8.886;2023-07-29T08:34:28;13.15;;;7.38;;
34144;SDS011;69555;53.014;8.886;2023-07-29T08:36:53;10.85;;;6.32;;
34144;SDS011;69555;53.014;8.886;2023-07-29T08:39:20;9.35;;;6.50;;
34144;SDS011;69555;53.014;8.886;2023-07-29T08:41:52;8.90;;;5.85;;
34144;SDS011;69555;53.014;8.886;2023-07-29T08:44:26;8.20;;;5.90;;
34144;SDS011;69555;53.014;8.886;2023-07-29T08:46:54;8.40;;;6.07;;
34144;SDS011;69555;53.014;8.886;2023-07-29T08:49:22;7.45;;;6.15;;
34144;SDS011;69555;53.014;8.886;2023-07-29T08:51:49;8.60;;;6.00;;
34144;SDS011;69555;53.014;8.886;2023-07-29T08:54:18;7.50;;;5.78;;
34144;SDS011;69555;53.014;8.886;2023-07-29T08:56:43;8.18;;;6.03;;
34144;SDS011;69555;53.014;8.886;2023-07-29T08:59:10;10.50;;;6.38;;
34144;SDS011;69555;53.014;8.886;2023-07-29T09:01:37;8.20;;;5.55;;
34144;SDS011;69555;53.014;8.886;2023-07-29T09:04:03;6.95;;;5.65;;
34144;SDS011;69555;53.014;8.886;2023-07-29T09:06:29;9.57;;;5.60;;
34144;SDS011;69555;53.014;8.886;2023-07-29T09:08:56;7.18;;;5.15;;
34144;SDS011;69555;53.014;8.886;2023-07-29T09:11:21;29.33;;;5.85;;
34144;SDS011;69555;53.014;8.886;2023-07-29T09:13:47;6.13;;;4.82;;
34144;SDS011;69555;53.014;8.886;2023-07-29T09:16:13;5.93;;;4.70;;
34144;SDS011;69555;53.014;8.886;2023-07-29T09:18:42;6.05;;;4.95;;
34144;SDS011;69555;53.014;8.886;2023-07-29T09:21:07;7.30;;;5.68;;
34144;SDS011;69555;53.014;8.886;2023-07-29T09:23:43;9.18;;;4.55;;
34144;SDS011;69555;53.014;8.886;2023-07-29T09:26:09;8.57;;;5.10;;
34144;SDS011;69555;53.014;8.886;2023-07-29T09:28:39;6.70;;;5.03;;
34144;SDS011;69555;53.014;8.886;2023-07-29T09:31:05;6.85;;;5.05;;
34144;SDS011;69555;53.014;8.886;2023-07-29T09:33:35;7.82;;;5.53;;
34144;SDS011;69555;53.014;8.886;2023-07-29T09:36:13;8.23;;;5.15;;
34144;SDS011;69555;53.014;8.886;2023-07-29T09:38:39;8.55;;;6.50;;
34144;SDS011;69555;53.014;8.886;2023-07-29T09:41:05;9.85;;;6.43;;
34144;SDS011;69555;53.014;8.886;2023-07-29T09:43:31;6.88;;;5.78;;
34144;SDS011;69555;53.014;8.886;2023-07-29T09:46:01;7.93;;;6.07;;
34144;SDS011;69555;53.014;8.886;2023-07-29T09:48:27;11.88;;;6.45;;
34144;SDS011;69555;53.014;8.886;2023-07-29T09:50:54;10.48;;;6.03;;
34144;SDS011;69555;53.014;8.886;2023-07-29T09:53:20;10.65;;;6.50;;
34144;SDS011;69555;53.014;8.886;2023-07-29T09:55:46;6.03;;;4.95;;
34144;SDS011;69555;53.014;8.886;2023-07-29T09:58:18;6.88;;;6.18;;
34144;SDS011;69555;53.014;8.886;2023-07-29T10:00:50;5.40;;;3.63;;
34144;SDS011;69555;53.014;8.886;2023-07-29T10:03:16;7.63;;;3.55;;
34144;SDS011;69555;53.014;8.886;2023-07-29T10:05:43;4.10;;;3.47;;
34144;SDS011;69555;53.014;8.886;2023-07-29T10:08:10;3.97;;;3.10;;
34144;SDS011;69555;53.014;8.886;2023-07-29T10:10:38;3.40;;;2.97;;
34144;SDS011;69555;53.014;8.886;2023-07-29T10:13:07;5.30;;;2.90;;
34144;SDS011;69555;53.014;8.886;2023-07-29T10:15:32;6.50;;;3.47;;
34144;SDS011;69555;53.014;8.886;2023-07-29T10:17:58;6.63;;;3.60;;
34144;SDS011;69555;53.014;8.886;2023-07-29T10:20:24;3.05;;;2.75;;
34144;SDS011;69555;53.014;8.886;2023-07-29T10:22:50;7.35;;;2.67;;
34144;SDS011;69555;53.014;8.886;2023-07-29T10:25:22;3.60;;;2.50;;
34144;SDS011;69555;53.014;8.886;2023-07-29T10:30:26;5.38;;;2.20;;
34144;SDS011;69555;53.014;8.886;2023-07-29T10:32:53;4.18;;;2.25;;
34144;SDS011;69555;53.014;8.886;2023-07-29T10:35:23;5.43;;;2.50;;
34144;SDS011;69555;53.014;8.886;2023-07-29T10:37:48;5.68;;;2.25;;
34144;SDS011;69555;53.014;8.886;2023-07-29T10:40:16;3.22;;;2.70;;
34144;SDS011;69555;53.014;8.886;2023-07-29T10:42:59;4.20;;;2.33;;
34144;SDS011;69555;53.014;8.886;2023-07-29T10:45:26;6.20;;;2.65;;
34144;SDS011;69555;53.014;8.886;2023-07-29T10:48:04;3.88;;;2.42;;
34144;SDS011;69555;53.014;8.886;2023-07-29T10:50:50;5.97;;;2.37;;
34144;SDS011;69555;53.014;8.886;2023-07-29T10:53:17;4.97;;;2.83;;
34144;SDS011;69555;53.014;8.886;2023-07-29T10:55:43;3.03;;;2.45;;
34144;SDS011;69555;53.014;8.886;2023-07-29T10:58:12;4.90;;;2.67;;
34144;SDS011;69555;53.014;8.886;2023-07-29T11:00:43;3.42;;;2.78;;
34144;SDS011;69555;53.014;8.886;2023-07-29T11:03:11;4.70;;;2.50;;
34144;SDS011;69555;53.014;8.886;2023-07-29T11:05:46;5.97;;;2.67;;
34144;SDS011;69555;53.014;8.886;2023-07-29T11:08:16;3.88;;;1.88;;
34144;SDS011;69555;53.014;8.886;2023-07-29T11:10:46;3.83;;;2.03;;
34144;SDS011;69555;53.014;8.886;2023-07-29T11:13:34;2.20;;;1.73;;
34144;SDS011;69555;53.014;8.886;2023-07-29T11:16:01;3.17;;;2.03;;
34144;SDS011;69555;53.014;8.886;2023-07-29T11:18:28;3.55;;;1.98;;
34144;SDS011;69555;53.014;8.886;2023-07-29T11:20:56;2.63;;;2.00;;
34144;SDS011;69555;53.014;8.886;2023-07-29T11:23:55;4.78;;;1.80;;
34144;SDS011;69555;53.014;8.886;2023-07-29T11:26:14;5.15;;;1.83;;
34144;SDS011;69555;53.014;8.886;2023-07-29T11:28:41;3.08;;;1.80;;
34144;SDS011;69555;53.014;8.886;2023-07-29T11:31:09;6.03;;;2.35;;
34144;SDS011;69555;53.014;8.886;2023-07-29T11:33:45;2.67;;;1.92;;
34144;SDS011;69555;53.014;8.886;2023-07-29T11:36:18;12.18;;;2.30;;
34144;SDS011;69555;53.014;8.886;2023-07-29T11:38:48;7.20;;;2.03;;
34144;SDS011;69555;53.014;8.886;2023-07-29T11:41:18;2.38;;;1.73;;
34144;SDS011;69555;53.014;8.886;2023-07-29T11:43:44;5.13;;;2.40;;
34144;SDS011;69555;53.014;8.886;2023-07-29T11:46:12;4.82;;;1.95;;
34144;SDS011;69555;53.014;8.886;2023-07-29T11:48:40;4.50;;;1.65;;
34144;SDS011;69555;53.014;8.886;2023-07-29T11:51:12;2.50;;;1.75;;
34144;SDS011;69555;53.014;8.886;2023-07-29T11:53:40;3.47;;;1.65;;
34144;SDS011;69555;53.014;8.886;2023-07-29T11:56:09;4.15;;;2.08;;
34144;SDS011;69555;53.014;8.886;2023-07-29T11:58:36;2.80;;;1.88;;
34144;SDS011;69555;53.014;8.886;2023-07-29T12:01:04;1.87;;;1.70;;
34144;SDS011;69555;53.014;8.886;2023-07-29T12:03:30;8.15;;;2.40;;
34144;SDS011;69555;53.014;8.886;2023-07-29T12:05:55;2.40;;;2.20;;
34144;SDS011;69555;53.014;8.886;2023-07-29T12:08:21;4.50;;;2.17;;
34144;SDS011;69555;53.014;8.886;2023-07-29T12:10:48;3.33;;;1.83;;
34144;SDS011;69555;53.014;8.886;2023-07-29T12:13:13;2.75;;;1.80;;
34144;SDS011;69555;53.014;8.886;2023-07-29T12:15:39;4.28;;;1.50;;
34144;SDS011;69555;53.014;8.886;2023-07-29T12:18:05;4.82;;;1.70;;
34144;SDS011;69555;53.014;8.886;2023-07-29T12:20:31;2.17;;;1.30;;
34144;SDS011;69555;53.014;8.886;2023-07-29T12:22:57;3.67;;;1.60;;
34144;SDS011;69555;53.014;8.886;2023-07-29T12:25:26;2.25;;;1.70;;
34144;SDS011;69555;53.014;8.886;2023-07-29T12:27:52;7.00;;;1.58;;
34144;SDS011;69555;53.014;8.886;2023-07-29T12:30:23;2.38;;;1.70;;
34144;SDS011;69555;53.014;8.886;2023-07-29T12:32:50;3.97;;;1.58;;
34144;SDS011;69555;53.014;8.886;2023-07-29T12:35:15;5.00;;;1.88;;
34144;SDS011;69555;53.014;8.886;2023-07-29T12:37:40;2.20;;;1.73;;
34144;SDS011;69555;53.014;8.886;2023-07-29T12:40:08;3.45;;;1.38;;
34144;SDS011;69555;53.014;8.886;2023-07-29T12:42:54;1.90;;;1.67;;
34144;SDS011;69555;53.014;8.886;2023-07-29T12:45:20;2.33;;;1.58;;
34144;SDS011;69555;53.014;8.886;2023-07-29T12:47:51;3.22;;;1.42;;
34144;SDS011;69555;53.014;8.886;2023-07-29T12:50:17;4.90;;;1.88;;
34144;SDS011;69555;53.014;8.886;2023-07-29T12:52:43;4.68;;;1.30;;
34144;SDS011;69555;53.014;8.886;2023-07-29T12:55:08;2.30;;;1.45;;
34144;SDS011;69555;53.014;8.886;2023-07-29T13:00:03;2.40;;;1.45;;
34144;SDS011;69555;53.014;8.886;2023-07-29T13:02:31;2.17;;;1.38;;
34144;SDS011;69555;53.014;8.886;2023-07-29T13:04:57;9.73;;;1.88;;
34144;SDS011;69555;53.014;8.886;2023-07-29T13:07:22;3.03;;;1.45;;
34144;SDS011;69555;53.014;8.886;2023-07-29T13:09:47;5.97;;;1.63;;
34144;SDS011;69555;53.014;8.886;2023-07-29T13:12:13;2.38;;;1.30;;
34144;SDS011;69555;53.014;8.886;2023-07-29T13:14:38;4.68;;;1.80;;
34144;SDS011;69555;53.014;8.886;2023-07-29T13:17:04;4.72;;;1.73;;
34144;SDS011;69555;53.014;8.886;2023-07-29T13:19:29;2.10;;;1.60;;
34144;SDS011;69555;53.014;8.886;2023-07-29T13:21:55;3.33;;;1.02;;
34144;SDS011;69555;53.014;8.886;2023-07-29T13:24:20;5.07;;;1.73;;
34144;SDS011;69555;53.014;8.886;2023-07-29T13:26:45;5.72;;;1.38;;
34144;SDS011;69555;53.014;8.886;2023-07-29T13:29:11;3.40;;;1.20;;
34144;SDS011;69555;53.014;8.886;2023-07-29T13:31:36;4.30;;;1.52;;
34144;SDS011;69555;53.014;8.886;2023-07-29T13:34:01;2.55;;;1.63;;
34144;SDS011;69555;53.014;8.886;2023-07-29T13:36:27;2.92;;;1.42;;
34144;SDS011;69555;53.014;8.886;2023-07-29T13:38:52;4.70;;;1.98;;
34144;SDS011;69555;53.014;8.886;2023-07-29T13:41:18;1.92;;;1.25;;
34144;SDS011;69555;53.014;8.886;2023-07-29T13:43:43;2.75;;;1.15;;
34144;SDS011;69555;53.014;8.886;2023-07-29T13:46:08;1.45;;;1.30;;
34144;SDS011;69555;53.014;8.886;2023-07-29T13:48:34;3.38;;;1.38;;
34144;SDS011;69555;53.014;8.886;2023-07-29T13:51:00;2.33;;;1.65;;
34144;SDS011;69555;53.014;8.886;2023-07-29T13:53:27;3.00;;;1.30;;
34144;SDS011;69555;53.014;8.886;2023-07-29T13:55:52;2.55;;;1.60;;
34144;SDS011;69555;53.014;8.886;2023-07-29T13:58:18;2.60;;;1.33;;
34144;SDS011;69555;53.014;8.886;2023-07-29T14:00:43;2.58;;;1.25;;
34144;SDS011;69555;53.014;8.886;2023-07-29T14:03:08;3.50;;;1.40;;
34144;SDS011;69555;53.014;8.886;2023-07-29T14:05:34;2.10;;;1.42;;
34144;SDS011;69555;53.014;8.886;2023-07-29T14:07:59;2.25;;;1.58;;
34144;SDS011;69555;53.014;8.886;2023-07-29T14:10:25;1.83;;;1.25;;
34144;SDS011;69555;53.014;8.886;2023-07-29T14:12:51;2.20;;;1.30;;
34144;SDS011;69555;53.014;8.886;2023-07-29T14:15:16;2.33;;;1.25;;
34144;SDS011;69555;53.014;8.886;2023-07-29T14:17:42;1.80;;;1.42;;
34144;SDS011;69555;53.014;8.886;2023-07-29T14:20:07;1.90;;;1.50;;
34144;SDS011;69555;53.014;8.886;2023-07-29T14:22:33;1.63;;;1.40;;
34144;SDS011;69555;53.014;8.886;2023-07-29T14:25:00;4.65;;;1.20;;
34144;SDS011;69555;53.014;8.886;2023-07-29T14:27:26;4.38;;;1.73;;
34144;SDS011;69555;53.014;8.886;2023-07-29T14:29:51;3.33;;;1.38;;
34144;SDS011;69555;53.014;8.886;2023-07-29T14:32:17;2.03;;;1.35;;
34144;SDS011;69555;53.014;8.886;2023-07-29T14:34:42;2.53;;;1.80;;
34144;SDS011;69555;53.014;8.886;2023-07-29T14:37:07;7.15;;;1.77;;
34144;SDS011;69555;53.014;8.886;2023-07-29T14:39:33;4.43;;;1.52;;
34144;SDS011;69555;53.014;8.886;2023-07-29T14:41:58;3.35;;;1.63;;
34144;SDS011;69555;53.014;8.886;2023-07-29T14:44:24;7.70;;;2.28;;
34144;SDS011;69555;53.014;8.886;2023-07-29T14:46:49;8.38;;;2.97;;
34144;SDS011;69555;53.014;8.886;2023-07-29T14:49:18;8.93;;;3.35;;
34144;SDS011;69555;53.014;8.886;2023-07-29T14:51:44;3.03;;;1.90;;